^^
Station Historical Data
Daily Summary for November 20, 2017 Units:  Both    English   Metric
« Previous Day
Next Day »
Daily Weekly Monthly Yearly Custom
  High: Low: Average:
Temperature: TemperatureF °F /  -17.8 °C 63.5 °F /  17.5 °C 77 °F /  25 °C
Dew Point: DewpointF °F /  -17.8 °C 21.9 °F /  -5.6 °C 27.1 °F /  -2.7 °C
Humidity: Humidity% 9% 17%
Wind Speed: WindSpeedMPHmph /  0km/h - 2.3mph /  3.7km/h
Wind Gust: WindSpeedGustMPHmph /  0km/h - -
Wind- - South
Pressure: PressureIn in /  0 hPa 30.03 in /  1016.8 hPa -
Precipitation: 0.00 in /  0 mm    
Historical Graphs
 
 
Tabular Data for November 20, 2017
Time Temperature Dew Point Pressure Wind Wind Speed Wind Gust Humidity Rainfall Rate (Hourly) solar Conditions
TemperatureF °F /  -17.8 °C DewpointF °F /  -17.8 °C PressureInin /  0hPa Calm     Humidity% HourlyPrecipInin /  0mm SolarRadiationWatts/m^2 W/m2 Conditions
00:00 71.4 °F /  21.9 °C 22.8 °F /  -5.1 °C 30.16in /  1021.2hPa SE 2.0mph /  3.2km/h 3.0mph /  4.8km/h 16% 0.00in /  0mm 0.0 W/m2
00:16 71.2 °F /  21.8 °C 22.8 °F /  -5.1 °C 30.16in /  1021.2hPa Calm   3.0mph /  4.8km/h 16% 0.00in /  0mm 0.0 W/m2
00:21 71.2 °F /  21.8 °C 22.8 °F /  -5.1 °C 30.16in /  1021.2hPa SE 0.9mph /  1.4km/h 4.0mph /  6.4km/h 16% 0.00in /  0mm 0.0 W/m2
00:26 71.1 °F /  21.7 °C 22.6 °F /  -5.2 °C 30.16in /  1021.2hPa SE 2.9mph /  4.7km/h 4.0mph /  6.4km/h 16% 0.00in /  0mm 0.0 W/m2
00:37 70.9 °F /  21.6 °C 22.5 °F /  -5.3 °C 30.17in /  1021.6hPa Calm     16% 0.00in /  0mm 0.0 W/m2
00:42 70.7 °F /  21.5 °C 23.7 °F /  -4.6 °C 30.17in /  1021.6hPa Calm     17% 0.00in /  0mm 0.0 W/m2
00:47 70.2 °F /  21.2 °C 23.4 °F /  -4.8 °C 30.17in /  1021.6hPa Calm   1.0mph /  1.6km/h 17% 0.00in /  0mm 0.0 W/m2
00:52 70.0 °F /  21.1 °C 23.2 °F /  -4.9 °C 30.16in /  1021.2hPa Calm     17% 0.00in /  0mm 0.0 W/m2
00:58 69.4 °F /  20.8 °C 24.1 °F /  -4.4 °C 30.16in /  1021.2hPa Calm   1.0mph /  1.6km/h 18% 0.00in /  0mm 0.0 W/m2
01:03 69.1 °F /  20.6 °C 23.7 °F /  -4.6 °C 30.16in /  1021.2hPa Calm   2.0mph /  3.2km/h 18% 0.00in /  0mm 0.0 W/m2
01:08 68.7 °F /  20.4 °C 23.5 °F /  -4.7 °C 30.16in /  1021.2hPa Calm   1.0mph /  1.6km/h 18% 0.00in /  0mm 0.0 W/m2
01:25 67.3 °F /  19.6 °C 24.8 °F /  -4 °C 30.16in /  1021.2hPa NE 0.9mph /  1.4km/h 3.0mph /  4.8km/h 20% 0.00in /  0mm 0.0 W/m2
01:35 66.7 °F /  19.3 °C 24.4 °F /  -4.2 °C 30.15in /  1020.9hPa Calm     20% 0.00in /  0mm 0.0 W/m2
01:40 66.6 °F /  19.2 °C 24.3 °F /  -4.3 °C 30.15in /  1020.9hPa Calm     20% 0.00in /  0mm 0.0 W/m2
01:46 66.4 °F /  19.1 °C 25.3 °F /  -3.7 °C 30.15in /  1020.9hPa Calm   1.0mph /  1.6km/h 21% 0.00in /  0mm 0.0 W/m2
01:51 65.8 °F /  18.8 °C 25.9 °F /  -3.4 °C 30.15in /  1020.9hPa Calm     22% 0.00in /  0mm 0.0 W/m2
02:07 64.9 °F /  18.3 °C 25.2 °F /  -3.8 °C 30.14in /  1020.5hPa Calm   2.0mph /  3.2km/h 22% 0.00in /  0mm 0.0 W/m2
02:12 64.8 °F /  18.2 °C 25.0 °F /  -3.9 °C 30.14in /  1020.5hPa Calm   1.0mph /  1.6km/h 22% 0.00in /  0mm 0.0 W/m2
02:18 64.6 °F /  18.1 °C 25.9 °F /  -3.4 °C 30.14in /  1020.5hPa ESE 0.9mph /  1.4km/h 1.0mph /  1.6km/h 23% 0.00in /  0mm 0.0 W/m2
02:23 64.2 °F /  17.9 °C 25.7 °F /  -3.5 °C 30.14in /  1020.5hPa East 2.0mph /  3.2km/h 2.0mph /  3.2km/h 23% 0.00in /  0mm 0.0 W/m2
02:28 64.2 °F /  17.9 °C 25.7 °F /  -3.5 °C 30.14in /  1020.5hPa ENE 0.9mph /  1.4km/h 6.0mph /  9.7km/h 23% 0.00in /  0mm 0.0 W/m2
02:34 64.0 °F /  17.8 °C 25.5 °F /  -3.6 °C 30.14in /  1020.5hPa Calm   4.0mph /  6.4km/h 23% 0.00in /  0mm 0.0 W/m2
02:39 64.0 °F /  17.8 °C 25.5 °F /  -3.6 °C 30.14in /  1020.5hPa Calm   4.0mph /  6.4km/h 23% 0.00in /  0mm 0.0 W/m2
02:44 63.9 °F /  17.7 °C 25.3 °F /  -3.7 °C 30.14in /  1020.5hPa East 2.9mph /  4.7km/h 4.0mph /  6.4km/h 23% 0.00in /  0mm 0.0 W/m2
02:50 63.9 °F /  17.7 °C 26.4 °F /  -3.1 °C 30.13in /  1020.2hPa Calm   4.0mph /  6.4km/h 24% 0.00in /  0mm 0.0 W/m2
02:55 63.9 °F /  17.7 °C 26.4 °F /  -3.1 °C 30.13in /  1020.2hPa Calm   5.0mph /  8km/h 24% 0.00in /  0mm 0.0 W/m2
03:00 63.7 °F /  17.6 °C 25.2 °F /  -3.8 °C 30.13in /  1020.2hPa Calm   2.0mph /  3.2km/h 23% 0.00in /  0mm 0.0 W/m2
03:05 63.7 °F /  17.6 °C 26.2 °F /  -3.2 °C 30.13in /  1020.2hPa Calm   4.0mph /  6.4km/h 24% 0.00in /  0mm 0.0 W/m2
03:10 63.5 °F /  17.5 °C 25.0 °F /  -3.9 °C 30.13in /  1020.2hPa ESE 0.9mph /  1.4km/h 3.0mph /  4.8km/h 23% 0.00in /  0mm 0.0 W/m2
03:20 63.7 °F /  17.6 °C 26.2 °F /  -3.2 °C 30.13in /  1020.2hPa East 0.9mph /  1.4km/h 3.0mph /  4.8km/h 24% 0.00in /  0mm 0.0 W/m2
03:30 63.7 °F /  17.6 °C 25.2 °F /  -3.8 °C 30.13in /  1020.2hPa ENE 2.0mph /  3.2km/h 2.0mph /  3.2km/h 23% 0.00in /  0mm 0.0 W/m2
03:36 63.7 °F /  17.6 °C 25.2 °F /  -3.8 °C 30.13in /  1020.2hPa Calm   4.0mph /  6.4km/h 23% 0.00in /  0mm 0.0 W/m2
03:41 63.7 °F /  17.6 °C 25.2 °F /  -3.8 °C 30.13in /  1020.2hPa Calm   2.0mph /  3.2km/h 23% 0.00in /  0mm 0.0 W/m2
03:51 63.7 °F /  17.6 °C 26.2 °F /  -3.2 °C 30.13in /  1020.2hPa Calm   1.0mph /  1.6km/h 24% 0.00in /  0mm 0.0 W/m2
04:01 63.5 °F /  17.5 °C 26.1 °F /  -3.3 °C 30.13in /  1020.2hPa Calm   3.0mph /  4.8km/h 24% 0.00in /  0mm 0.0 W/m2
04:06 63.5 °F /  17.5 °C 26.1 °F /  -3.3 °C 30.13in /  1020.2hPa Calm   2.0mph /  3.2km/h 24% 0.00in /  0mm 0.0 W/m2
04:27 63.7 °F /  17.6 °C 26.2 °F /  -3.2 °C 30.13in /  1020.2hPa Calm   2.0mph /  3.2km/h 24% 0.00in /  0mm 0.0 W/m2
04:33 63.7 °F /  17.6 °C 26.2 °F /  -3.2 °C 30.13in /  1020.2hPa Calm   3.0mph /  4.8km/h 24% 0.00in /  0mm 0.0 W/m2
04:38 63.7 °F /  17.6 °C 26.2 °F /  -3.2 °C 30.13in /  1020.2hPa Calm   2.0mph /  3.2km/h 24% 0.00in /  0mm 0.0 W/m2
04:43 63.9 °F /  17.7 °C 26.4 °F /  -3.1 °C 30.13in /  1020.2hPa Calm     24% 0.00in /  0mm 0.0 W/m2
04:53 63.9 °F /  17.7 °C 28.2 °F /  -2.1 °C 30.13in /  1020.2hPa Calm     26% 0.00in /  0mm 0.0 W/m2
04:59 63.7 °F /  17.6 °C 28.2 °F /  -2.1 °C 30.13in /  1020.2hPa Calm     26% 0.00in /  0mm 0.0 W/m2
05:19 63.7 °F /  17.6 °C 28.2 °F /  -2.1 °C 30.13in /  1020.2hPa Calm     26% 0.00in /  0mm 0.0 W/m2
05:24 63.7 °F /  17.6 °C 27.1 °F /  -2.7 °C 30.13in /  1020.2hPa Calm   1.0mph /  1.6km/h 25% 0.00in /  0mm 0.0 W/m2
05:29 63.7 °F /  17.6 °C 28.2 °F /  -2.1 °C 30.13in /  1020.2hPa East 2.0mph /  3.2km/h 3.0mph /  4.8km/h 26% 0.00in /  0mm 0.0 W/m2
05:34 63.9 °F /  17.7 °C 28.2 °F /  -2.1 °C 30.13in /  1020.2hPa Calm   3.0mph /  4.8km/h 26% 0.00in /  0mm 0.0 W/m2
05:39 63.9 °F /  17.7 °C 28.2 °F /  -2.1 °C 30.13in /  1020.2hPa Calm   2.0mph /  3.2km/h 26% 0.00in /  0mm 0.0 W/m2
05:44 63.9 °F /  17.7 °C 28.2 °F /  -2.1 °C 30.13in /  1020.2hPa Calm   2.0mph /  3.2km/h 26% 0.00in /  0mm 0.0 W/m2
05:50 63.9 °F /  17.7 °C 27.3 °F /  -2.6 °C 30.13in /  1020.2hPa East 0.9mph /  1.4km/h 1.0mph /  1.6km/h 25% 0.00in /  0mm 0.0 W/m2
05:55 63.9 °F /  17.7 °C 28.2 °F /  -2.1 °C 30.13in /  1020.2hPa Calm   1.0mph /  1.6km/h 26% 0.00in /  0mm 0.0 W/m2
06:05 63.9 °F /  17.7 °C 28.2 °F /  -2.1 °C 30.14in /  1020.5hPa Calm   1.0mph /  1.6km/h 26% 0.00in /  0mm 5.0 W/m2
06:15 63.9 °F /  17.7 °C 28.2 °F /  -2.1 °C 30.14in /  1020.5hPa Calm   4.0mph /  6.4km/h 26% 0.00in /  0mm 14.0 W/m2
06:20 64.0 °F /  17.8 °C 29.3 °F /  -1.5 °C 30.14in /  1020.5hPa East 0.9mph /  1.4km/h 4.0mph /  6.4km/h 27% 0.00in /  0mm 19.0 W/m2
06:30 64.6 °F /  18.1 °C 28.9 °F /  -1.7 °C 30.15in /  1020.9hPa Calm   7.0mph /  11.3km/h 26% 0.00in /  0mm 30.0 W/m2
06:36 65.1 °F /  18.4 °C 27.5 °F /  -2.5 °C 30.15in /  1020.9hPa East 0.9mph /  1.4km/h 7.0mph /  11.3km/h 24% 0.00in /  0mm 40.0 W/m2
06:41 65.8 °F /  18.8 °C 27.0 °F /  -2.8 °C 30.15in /  1020.9hPa East 6.0mph /  9.7km/h 6.0mph /  9.7km/h 23% 0.00in /  0mm 49.0 W/m2
06:46 66.6 °F /  19.2 °C 26.6 °F /  -3 °C 30.15in /  1020.9hPa ESE 0.9mph /  1.4km/h 7.0mph /  11.3km/h 22% 0.00in /  0mm 53.0 W/m2
06:51 67.5 °F /  19.7 °C 26.2 °F /  -3.2 °C 30.15in /  1020.9hPa ENE 6.0mph /  9.7km/h 9.0mph /  14.5km/h 21% 0.00in /  0mm 56.0 W/m2
06:56 68.0 °F /  20 °C 25.3 °F /  -3.7 °C 30.15in /  1020.9hPa NE 0.9mph /  1.4km/h 6.0mph /  9.7km/h 20% 0.00in /  0mm 63.0 W/m2
07:01 68.4 °F /  20.2 °C 27.0 °F /  -2.8 °C 30.16in /  1021.2hPa ESE 2.9mph /  4.7km/h 7.0mph /  11.3km/h 21% 0.00in /  0mm 70.0 W/m2
07:06 68.7 °F /  20.4 °C 26.1 °F /  -3.3 °C 30.16in /  1021.2hPa ESE 2.9mph /  4.7km/h 6.0mph /  9.7km/h 20% 0.00in /  0mm 83.0 W/m2
07:22 69.4 °F /  20.8 °C 25.3 °F /  -3.7 °C 30.16in /  1021.2hPa NNE 4.9mph /  7.9km/h 8.0mph /  12.9km/h 19% 0.00in /  0mm 100.0 W/m2
07:27 69.8 °F /  21 °C 25.7 °F /  -3.5 °C 30.16in /  1021.2hPa ENE 4.9mph /  7.9km/h 8.0mph /  12.9km/h 19% 0.00in /  0mm 116.0 W/m2
07:32 70.2 °F /  21.2 °C 26.1 °F /  -3.3 °C 30.17in /  1021.6hPa NE 8.1mph /  13km/h 8.1mph /  13km/h 19% 0.00in /  0mm 137.0 W/m2
07:37 70.3 °F /  21.3 °C 26.1 °F /  -3.3 °C 30.17in /  1021.6hPa NNE 2.0mph /  3.2km/h 7.0mph /  11.3km/h 19% 0.00in /  0mm 146.0 W/m2
07:43 70.9 °F /  21.6 °C 26.6 °F /  -3 °C 30.16in /  1021.2hPa North 0.9mph /  1.4km/h 7.0mph /  11.3km/h 19% 0.00in /  0mm 172.0 W/m2
07:48 71.2 °F /  21.8 °C 26.8 °F /  -2.9 °C 30.17in /  1021.6hPa ENE 6.9mph /  11.1km/h 8.0mph /  12.9km/h 19% 0.00in /  0mm 260.0 W/m2
08:04 72.7 °F /  22.6 °C 26.8 °F /  -2.9 °C 30.17in /  1021.6hPa ENE 2.9mph /  4.7km/h 5.0mph /  8km/h 18% 0.00in /  0mm 258.0 W/m2
08:15 73.6 °F /  23.1 °C 27.5 °F /  -2.5 °C 30.17in /  1021.6hPa ENE 4.9mph /  7.9km/h 8.0mph /  12.9km/h 18% 0.00in /  0mm 269.0 W/m2
08:20 73.9 °F /  23.3 °C 29.1 °F /  -1.6 °C 30.17in /  1021.6hPa Calm   4.0mph /  6.4km/h 19% 0.00in /  0mm 264.0 W/m2
08:30 75.0 °F /  23.9 °C 28.6 °F /  -1.9 °C 30.17in /  1021.6hPa ENE 2.0mph /  3.2km/h 4.0mph /  6.4km/h 18% 0.00in /  0mm 301.0 W/m2
08:35 75.6 °F /  24.2 °C 27.7 °F /  -2.4 °C 30.17in /  1021.6hPa NNE 4.0mph /  6.4km/h 8.0mph /  12.9km/h 17% 0.00in /  0mm 318.0 W/m2
08:40 76.3 °F /  24.6 °C 28.2 °F /  -2.1 °C 30.18in /  1021.9hPa NNE 2.0mph /  3.2km/h 7.0mph /  11.3km/h 17% 0.00in /  0mm 287.0 W/m2
08:51 77.2 °F /  25.1 °C 28.9 °F /  -1.7 °C 30.17in /  1021.6hPa East 2.0mph /  3.2km/h 8.0mph /  12.9km/h 17% 0.00in /  0mm 450.0 W/m2
09:06 79.2 °F /  26.2 °C 29.1 °F /  -1.6 °C 30.17in /  1021.6hPa ENE 0.9mph /  1.4km/h 6.0mph /  9.7km/h 16% 0.00in /  0mm 332.0 W/m2
09:16 80.4 °F /  26.9 °C 28.6 °F /  -1.9 °C 30.16in /  1021.2hPa SSE 2.0mph /  3.2km/h 8.0mph /  12.9km/h 15% 0.00in /  0mm 953.0 W/m2
09:21 81.1 °F /  27.3 °C 27.5 °F /  -2.5 °C 30.16in /  1021.2hPa East 2.9mph /  4.7km/h 5.0mph /  8km/h 14% 0.00in /  0mm 563.0 W/m2
09:32 82.2 °F /  27.9 °C 28.2 °F /  -2.1 °C 30.15in /  1020.9hPa NE 0.9mph /  1.4km/h 6.0mph /  9.7km/h 14% 0.00in /  0mm 828.0 W/m2
09:37 82.6 °F /  28.1 °C 26.8 °F /  -2.9 °C 30.15in /  1020.9hPa SE 0.9mph /  1.4km/h 9.0mph /  14.5km/h 13% 0.00in /  0mm 773.0 W/m2
09:47 83.8 °F /  28.8 °C 23.7 °F /  -4.6 °C 30.15in /  1020.9hPa North 2.9mph /  4.7km/h 6.0mph /  9.7km/h 11% 0.00in /  0mm 802.0 W/m2
09:57 85.1 °F /  29.5 °C 26.8 °F /  -2.9 °C 30.15in /  1020.9hPa North 4.9mph /  7.9km/h 5.0mph /  8km/h 12% 0.00in /  0mm 828.0 W/m2
10:02 85.8 °F /  29.9 °C 25.2 °F /  -3.8 °C 30.15in /  1020.9hPa NNE 4.0mph /  6.4km/h 7.0mph /  11.3km/h 11% 0.00in /  0mm 847.0 W/m2
10:07 86.2 °F /  30.1 °C 23.2 °F /  -4.9 °C 30.15in /  1020.9hPa NNW 4.0mph /  6.4km/h 6.0mph /  9.7km/h 10% 0.00in /  0mm 860.0 W/m2
10:12 86.7 °F /  30.4 °C 23.7 °F /  -4.6 °C 30.14in /  1020.5hPa NNW 2.0mph /  3.2km/h 5.0mph /  8km/h 10% 0.00in /  0mm 874.0 W/m2
10:18 87.1 °F /  30.6 °C 26.2 °F /  -3.2 °C 30.14in /  1020.5hPa NNW 0.9mph /  1.4km/h 3.0mph /  4.8km/h 11% 0.00in /  0mm 884.0 W/m2
10:23 87.1 °F /  30.6 °C 26.2 °F /  -3.2 °C 30.14in /  1020.5hPa NNW 2.9mph /  4.7km/h 6.0mph /  9.7km/h 11% 0.00in /  0mm 895.0 W/m2
10:28 87.4 °F /  30.8 °C 26.4 °F /  -3.1 °C 30.14in /  1020.5hPa NW 4.9mph /  7.9km/h 7.0mph /  11.3km/h 11% 0.00in /  0mm 900.0 W/m2
10:44 86.7 °F /  30.4 °C 23.7 °F /  -4.6 °C 30.14in /  1020.5hPa North 0.9mph /  1.4km/h 5.0mph /  8km/h 10% 0.00in /  0mm 939.0 W/m2
10:59 87.8 °F /  31 °C 24.4 °F /  -4.2 °C 30.13in /  1020.2hPa NNE 2.0mph /  3.2km/h 10.0mph /  16.1km/h 10% 0.00in /  0mm 963.0 W/m2
11:14 88.0 °F /  31.1 °C 24.6 °F /  -4.1 °C 30.13in /  1020.2hPa West 2.0mph /  3.2km/h 5.0mph /  8km/h 10% 0.00in /  0mm 1013.0 W/m2
11:20 88.3 °F /  31.3 °C 27.1 °F /  -2.7 °C 30.13in /  1020.2hPa NNE 4.0mph /  6.4km/h 7.0mph /  11.3km/h 11% 0.00in /  0mm 1023.0 W/m2
11:25 88.5 °F /  31.4 °C 25.0 °F /  -3.9 °C 30.12in /  1019.9hPa NNE 8.1mph /  13km/h 13.0mph /  20.9km/h 10% 0.00in /  0mm 1037.0 W/m2
11:30 88.9 °F /  31.6 °C 27.5 °F /  -2.5 °C 30.12in /  1019.9hPa NNW 8.9mph /  14.3km/h 9.0mph /  14.5km/h 11% 0.00in /  0mm 1085.0 W/m2
11:35 89.1 °F /  31.7 °C 25.3 °F /  -3.7 °C 30.12in /  1019.9hPa ENE 6.0mph /  9.7km/h 11.0mph /  17.7km/h 10% 0.00in /  0mm 599.0 W/m2
11:45 88.0 °F /  31.1 °C 27.0 °F /  -2.8 °C 30.12in /  1019.9hPa North 4.9mph /  7.9km/h 11.0mph /  17.7km/h 11% 0.00in /  0mm 613.0 W/m2
11:50 88.0 °F /  31.1 °C 27.0 °F /  -2.8 °C 30.12in /  1019.9hPa NNW 4.0mph /  6.4km/h 8.0mph /  12.9km/h 11% 0.00in /  0mm 1100.0 W/m2
11:55 88.3 °F /  31.3 °C 27.1 °F /  -2.7 °C 30.11in /  1019.5hPa NNW 6.0mph /  9.7km/h 11.0mph /  17.7km/h 11% 0.00in /  0mm 585.0 W/m2
12:00 88.5 °F /  31.4 °C 27.3 °F /  -2.6 °C 30.11in /  1019.5hPa North 2.9mph /  4.7km/h 10.0mph /  16.1km/h 11% 0.00in /  0mm 969.0 W/m2
12:06 88.7 °F /  31.5 °C 27.5 °F /  -2.5 °C 30.11in /  1019.5hPa North 4.9mph /  7.9km/h 9.0mph /  14.5km/h 11% 0.00in /  0mm 793.0 W/m2
12:11 88.5 °F /  31.4 °C 29.5 °F /  -1.4 °C 30.11in /  1019.5hPa NNW 4.0mph /  6.4km/h 7.0mph /  11.3km/h 12% 0.00in /  0mm 332.0 W/m2
12:16 88.2 °F /  31.2 °C 27.0 °F /  -2.8 °C 30.11in /  1019.5hPa NNE 11.0mph /  17.7km/h 14.0mph /  22.5km/h 11% 0.00in /  0mm 1267.0 W/m2
12:21 89.1 °F /  31.7 °C 27.7 °F /  -2.4 °C 30.11in /  1019.5hPa NW 6.0mph /  9.7km/h 13.0mph /  20.9km/h 11% 0.00in /  0mm 1208.0 W/m2
12:32 89.6 °F /  32 °C 28.2 °F /  -2.1 °C 30.11in /  1019.5hPa NNW 15.0mph /  24.1km/h 15.0mph /  24.1km/h 11% 0.00in /  0mm 327.0 W/m2
12:37 89.2 °F /  31.8 °C 30.0 °F /  -1.1 °C 30.11in /  1019.5hPa North 4.0mph /  6.4km/h 7.0mph /  11.3km/h 12% 0.00in /  0mm 387.0 W/m2
12:42 89.2 °F /  31.8 °C 27.9 °F /  -2.3 °C 30.10in /  1019.2hPa East 2.0mph /  3.2km/h 6.0mph /  9.7km/h 11% 0.00in /  0mm 295.0 W/m2
12:53 89.8 °F /  32.1 °C 30.4 °F /  -0.9 °C 30.10in /  1019.2hPa NNW 2.9mph /  4.7km/h 8.0mph /  12.9km/h 12% 0.00in /  0mm 1288.0 W/m2
12:58 90.0 °F /  32.2 °C 28.4 °F /  -2 °C 30.10in /  1019.2hPa North 6.0mph /  9.7km/h 13.0mph /  20.9km/h 11% 0.00in /  0mm 366.0 W/m2
13:03 89.2 °F /  31.8 °C 30.0 °F /  -1.1 °C 30.10in /  1019.2hPa NW 4.0mph /  6.4km/h 5.0mph /  8km/h 12% 0.00in /  0mm 383.0 W/m2
13:24 88.5 °F /  31.4 °C 29.5 °F /  -1.4 °C 30.09in /  1018.8hPa North 4.0mph /  6.4km/h 10.0mph /  16.1km/h 12% 0.00in /  0mm 1137.0 W/m2
13:29 88.5 °F /  31.4 °C 29.5 °F /  -1.4 °C 30.10in /  1019.2hPa NW 4.9mph /  7.9km/h 10.0mph /  16.1km/h 12% 0.00in /  0mm 388.0 W/m2
13:34 88.3 °F /  31.3 °C 29.3 °F /  -1.5 °C 30.09in /  1018.8hPa WSW 2.0mph /  3.2km/h 9.0mph /  14.5km/h 12% 0.00in /  0mm 429.0 W/m2
13:40 88.3 °F /  31.3 °C 27.1 °F /  -2.7 °C 30.09in /  1018.8hPa NNW 8.1mph /  13km/h 15.0mph /  24.1km/h 11% 0.00in /  0mm 501.0 W/m2
13:45 88.5 °F /  31.4 °C 29.5 °F /  -1.4 °C 30.09in /  1018.8hPa WNW 0.9mph /  1.4km/h 4.0mph /  6.4km/h 12% 0.00in /  0mm 1269.0 W/m2
13:55 90.7 °F /  32.6 °C 28.9 °F /  -1.7 °C 30.08in /  1018.5hPa NE 2.9mph /  4.7km/h 12.0mph /  19.3km/h 11% 0.00in /  0mm 374.0 W/m2
14:05 90.0 °F /  32.2 °C 28.4 °F /  -2 °C 30.08in /  1018.5hPa North 2.0mph /  3.2km/h 9.0mph /  14.5km/h 11% 0.00in /  0mm 325.0 W/m2
14:10 89.4 °F /  31.9 °C 28.0 °F /  -2.2 °C 30.08in /  1018.5hPa NW 6.0mph /  9.7km/h 10.0mph /  16.1km/h 11% 0.00in /  0mm 357.0 W/m2
14:15 88.9 °F /  31.6 °C 29.7 °F /  -1.3 °C 30.08in /  1018.5hPa North 6.9mph /  11.1km/h 10.0mph /  16.1km/h 12% 0.00in /  0mm 359.0 W/m2
14:25 88.7 °F /  31.5 °C 27.5 °F /  -2.5 °C 30.07in /  1018.2hPa North 8.1mph /  13km/h 9.0mph /  14.5km/h 11% 0.00in /  0mm 408.0 W/m2
14:30 88.5 °F /  31.4 °C 27.3 °F /  -2.6 °C 30.07in /  1018.2hPa North 2.9mph /  4.7km/h 12.0mph /  19.3km/h 11% 0.00in /  0mm 390.0 W/m2
14:51 89.1 °F /  31.7 °C 25.3 °F /  -3.7 °C 30.07in /  1018.2hPa Calm   6.0mph /  9.7km/h 10% 0.00in /  0mm 422.0 W/m2
15:06 88.3 °F /  31.3 °C 27.1 °F /  -2.7 °C 30.06in /  1017.8hPa NNW 2.9mph /  4.7km/h 10.0mph /  16.1km/h 11% 0.00in /  0mm 285.0 W/m2
15:11 88.0 °F /  31.1 °C 27.0 °F /  -2.8 °C 30.06in /  1017.8hPa WNW 0.9mph /  1.4km/h 6.0mph /  9.7km/h 11% 0.00in /  0mm 253.0 W/m2
15:16 88.0 °F /  31.1 °C 27.0 °F /  -2.8 °C 30.06in /  1017.8hPa North 4.9mph /  7.9km/h 7.0mph /  11.3km/h 11% 0.00in /  0mm 294.0 W/m2
15:21 88.0 °F /  31.1 °C 27.0 °F /  -2.8 °C 30.06in /  1017.8hPa West 0.9mph /  1.4km/h 5.0mph /  8km/h 11% 0.00in /  0mm 357.0 W/m2
15:27 88.2 °F /  31.2 °C 27.0 °F /  -2.8 °C 30.05in /  1017.5hPa NW 2.9mph /  4.7km/h 9.0mph /  14.5km/h 11% 0.00in /  0mm 338.0 W/m2
15:32 88.2 °F /  31.2 °C 24.8 °F /  -4 °C 30.05in /  1017.5hPa NNW 2.0mph /  3.2km/h 9.0mph /  14.5km/h 10% 0.00in /  0mm 371.0 W/m2
15:37 88.3 °F /  31.3 °C 27.1 °F /  -2.7 °C 30.05in /  1017.5hPa West 4.9mph /  7.9km/h 9.0mph /  14.5km/h 11% 0.00in /  0mm 288.0 W/m2
15:47 88.2 °F /  31.2 °C 27.0 °F /  -2.8 °C 30.06in /  1017.8hPa NNW 4.0mph /  6.4km/h 4.0mph /  6.4km/h 11% 0.00in /  0mm 200.0 W/m2
15:52 88.2 °F /  31.2 °C 27.0 °F /  -2.8 °C 30.05in /  1017.5hPa NNE 0.9mph /  1.4km/h 3.0mph /  4.8km/h 11% 0.00in /  0mm 176.0 W/m2
15:57 87.8 °F /  31 °C 26.8 °F /  -2.9 °C 30.05in /  1017.5hPa Calm   7.0mph /  11.3km/h 11% 0.00in /  0mm 160.0 W/m2
16:02 87.6 °F /  30.9 °C 26.6 °F /  -3 °C 30.05in /  1017.5hPa NNW 6.0mph /  9.7km/h 6.0mph /  9.7km/h 11% 0.00in /  0mm 151.0 W/m2
16:07 87.3 °F /  30.7 °C 26.4 °F /  -3.1 °C 30.05in /  1017.5hPa SSW 0.9mph /  1.4km/h 6.0mph /  9.7km/h 11% 0.00in /  0mm 142.0 W/m2
16:13 87.1 °F /  30.6 °C 26.2 °F /  -3.2 °C 30.05in /  1017.5hPa WNW 0.9mph /  1.4km/h 8.0mph /  12.9km/h 11% 0.00in /  0mm 132.0 W/m2
16:18 86.7 °F /  30.4 °C 25.9 °F /  -3.4 °C 30.05in /  1017.5hPa SW 4.9mph /  7.9km/h 6.0mph /  9.7km/h 11% 0.00in /  0mm 135.0 W/m2
16:23 86.4 °F /  30.2 °C 25.7 °F /  -3.5 °C 30.05in /  1017.5hPa WSW 0.9mph /  1.4km/h 3.0mph /  4.8km/h 11% 0.00in /  0mm 141.0 W/m2
16:28 86.2 °F /  30.1 °C 25.5 °F /  -3.6 °C 30.05in /  1017.5hPa WNW 2.9mph /  4.7km/h 8.0mph /  12.9km/h 11% 0.00in /  0mm 163.0 W/m2
16:38 86.2 °F /  30.1 °C 25.5 °F /  -3.6 °C 30.04in /  1017.2hPa Calm   5.0mph /  8km/h 11% 0.00in /  0mm 255.0 W/m2
16:43 86.5 °F /  30.3 °C 25.9 °F /  -3.4 °C 30.04in /  1017.2hPa SW 0.9mph /  1.4km/h 3.0mph /  4.8km/h 11% 0.00in /  0mm 640.0 W/m2
16:48 87.4 °F /  30.8 °C 26.4 °F /  -3.1 °C 30.04in /  1017.2hPa Calm   12.0mph /  19.3km/h 11% 0.00in /  0mm 241.0 W/m2
16:53 87.8 °F /  31 °C 26.8 °F /  -2.9 °C 30.04in /  1017.2hPa North 2.0mph /  3.2km/h 4.0mph /  6.4km/h 11% 0.00in /  0mm 316.0 W/m2
16:58 88.2 °F /  31.2 °C 24.8 °F /  -4 °C 30.04in /  1017.2hPa NW 4.0mph /  6.4km/h 8.0mph /  12.9km/h 10% 0.00in /  0mm 492.0 W/m2
17:14 88.9 °F /  31.6 °C 25.3 °F /  -3.7 °C 30.04in /  1017.2hPa Calm   7.0mph /  11.3km/h 10% 0.00in /  0mm 127.0 W/m2
17:29 88.9 °F /  31.6 °C 27.5 °F /  -2.5 °C 30.04in /  1017.2hPa West 0.9mph /  1.4km/h 5.0mph /  8km/h 11% 0.00in /  0mm 432.0 W/m2
17:39 89.8 °F /  32.1 °C 25.9 °F /  -3.4 °C 30.03in /  1016.8hPa North 2.9mph /  4.7km/h 9.0mph /  14.5km/h 10% 0.00in /  0mm 376.0 W/m2
17:44 90.0 °F /  32.2 °C 28.4 °F /  -2 °C 30.04in /  1017.2hPa West 2.0mph /  3.2km/h 2.0mph /  3.2km/h 11% 0.00in /  0mm 262.0 W/m2
17:55 89.4 °F /  31.9 °C 25.7 °F /  -3.5 °C 30.04in /  1017.2hPa NNE 0.9mph /  1.4km/h 3.0mph /  4.8km/h 10% 0.00in /  0mm 271.0 W/m2
18:00 89.6 °F /  32 °C 25.9 °F /  -3.4 °C 30.04in /  1017.2hPa NNW 2.9mph /  4.7km/h 4.0mph /  6.4km/h 10% 0.00in /  0mm 274.0 W/m2
18:05 90.0 °F /  32.2 °C 26.1 °F /  -3.3 °C 30.04in /  1017.2hPa SW 2.0mph /  3.2km/h 6.0mph /  9.7km/h 10% 0.00in /  0mm 250.0 W/m2
18:10 90.1 °F /  32.3 °C 26.2 °F /  -3.2 °C 30.04in /  1017.2hPa West 2.0mph /  3.2km/h 7.0mph /  11.3km/h 10% 0.00in /  0mm 213.0 W/m2
18:15 89.8 °F /  32.1 °C 25.9 °F /  -3.4 °C 30.04in /  1017.2hPa West 2.0mph /  3.2km/h 5.0mph /  8km/h 10% 0.00in /  0mm 148.0 W/m2
18:20 89.2 °F /  31.8 °C 25.5 °F /  -3.6 °C 30.05in /  1017.5hPa SSW 2.9mph /  4.7km/h 5.0mph /  8km/h 10% 0.00in /  0mm 114.0 W/m2
18:25 88.3 °F /  31.3 °C 22.3 °F /  -5.4 °C 30.05in /  1017.5hPa WNW 4.9mph /  7.9km/h 10.0mph /  16.1km/h 9% 0.00in /  0mm 120.0 W/m2
18:30 87.3 °F /  30.7 °C 24.1 °F /  -4.4 °C 30.05in /  1017.5hPa WSW 4.0mph /  6.4km/h 6.0mph /  9.7km/h 10% 0.00in /  0mm 83.0 W/m2
18:35 86.4 °F /  30.2 °C 23.4 °F /  -4.8 °C 30.05in /  1017.5hPa West 6.0mph /  9.7km/h 15.0mph /  24.1km/h 10% 0.00in /  0mm 65.0 W/m2
18:41 85.3 °F /  29.6 °C 22.6 °F /  -5.2 °C 30.06in /  1017.8hPa SSW 6.9mph /  11.1km/h 12.0mph /  19.3km/h 10% 0.00in /  0mm 46.0 W/m2
18:46 84.6 °F /  29.2 °C 21.9 °F /  -5.6 °C 30.06in /  1017.8hPa SSW 2.9mph /  4.7km/h 13.0mph /  20.9km/h 10% 0.00in /  0mm 33.0 W/m2
18:51 83.8 °F /  28.8 °C 23.7 °F /  -4.6 °C 30.06in /  1017.8hPa SW 6.9mph /  11.1km/h 7.0mph /  11.3km/h 11% 0.00in /  0mm 25.0 W/m2
18:56 83.5 °F /  28.6 °C 23.4 °F /  -4.8 °C 30.06in /  1017.8hPa SSW 2.0mph /  3.2km/h 6.0mph /  9.7km/h 11% 0.00in /  0mm 19.0 W/m2
19:01 82.9 °F /  28.3 °C 23.0 °F /  -5 °C 30.07in /  1018.2hPa SSW 4.0mph /  6.4km/h 9.0mph /  14.5km/h 11% 0.00in /  0mm 14.0 W/m2
19:06 82.6 °F /  28.1 °C 22.8 °F /  -5.1 °C 30.07in /  1018.2hPa SSE 2.0mph /  3.2km/h 9.0mph /  14.5km/h 11% 0.00in /  0mm 9.0 W/m2
19:12 82.2 °F /  27.9 °C 22.5 °F /  -5.3 °C 30.07in /  1018.2hPa SW 0.9mph /  1.4km/h 5.0mph /  8km/h 11% 0.00in /  0mm 5.0 W/m2
19:23 81.7 °F /  27.6 °C 22.1 °F /  -5.5 °C 30.08in /  1018.5hPa SW 2.9mph /  4.7km/h 7.0mph /  11.3km/h 11% 0.00in /  0mm 0.0 W/m2
19:38 80.4 °F /  26.9 °C 25.2 °F /  -3.8 °C 30.08in /  1018.5hPa SW 2.0mph /  3.2km/h 6.0mph /  9.7km/h 13% 0.00in /  0mm 0.0 W/m2
19:43 80.1 °F /  26.7 °C 26.6 °F /  -3 °C 30.08in /  1018.5hPa WSW 6.9mph /  11.1km/h 7.0mph /  11.3km/h 14% 0.00in /  0mm 0.0 W/m2
19:58 78.6 °F /  25.9 °C 31.6 °F /  -0.2 °C 30.09in /  1018.8hPa SSW 4.0mph /  6.4km/h 9.0mph /  14.5km/h 18% 0.00in /  0mm 0.0 W/m2
20:03 78.1 °F /  25.6 °C 31.1 °F /  -0.5 °C 30.10in /  1019.2hPa SW 4.0mph /  6.4km/h 12.0mph /  19.3km/h 18% 0.00in /  0mm 0.0 W/m2
20:08 77.7 °F /  25.4 °C 32.2 °F /  0.1 °C 30.10in /  1019.2hPa SW 4.9mph /  7.9km/h 10.0mph /  16.1km/h 19% 0.00in /  0mm 0.0 W/m2
20:19 77.2 °F /  25.1 °C 33.1 °F /  0.6 °C 30.10in /  1019.2hPa WSW 2.9mph /  4.7km/h 7.0mph /  11.3km/h 20% 0.00in /  0mm 0.0 W/m2
20:24 76.6 °F /  24.8 °C 32.5 °F /  0.3 °C 30.10in /  1019.2hPa Calm   10.0mph /  16.1km/h 20% 0.00in /  0mm 0.0 W/m2
20:29 76.5 °F /  24.7 °C 32.4 °F /  0.2 °C 30.10in /  1019.2hPa SW 2.0mph /  3.2km/h 5.0mph /  8km/h 20% 0.00in /  0mm 0.0 W/m2
20:34 76.1 °F /  24.5 °C 32.2 °F /  0.1 °C 30.11in /  1019.5hPa SW 4.9mph /  7.9km/h 5.0mph /  8km/h 20% 0.00in /  0mm 0.0 W/m2
20:44 75.4 °F /  24.1 °C 31.5 °F /  -0.3 °C 30.11in /  1019.5hPa Calm   3.0mph /  4.8km/h 20% 0.00in /  0mm 0.0 W/m2
20:49 75.2 °F /  24 °C 32.5 °F /  0.3 °C 30.11in /  1019.5hPa South 0.9mph /  1.4km/h 6.0mph /  9.7km/h 21% 0.00in /  0mm 0.0 W/m2
20:54 75.0 °F /  23.9 °C 32.4 °F /  0.2 °C 30.12in /  1019.9hPa SSE 4.0mph /  6.4km/h 5.0mph /  8km/h 21% 0.00in /  0mm 0.0 W/m2
20:59 74.8 °F /  23.8 °C 31.1 °F /  -0.5 °C 30.12in /  1019.9hPa Calm   6.0mph /  9.7km/h 20% 0.00in /  0mm 0.0 W/m2
21:04 74.8 °F /  23.8 °C 32.4 °F /  0.2 °C 30.12in /  1019.9hPa SSW 0.9mph /  1.4km/h 1.0mph /  1.6km/h 21% 0.00in /  0mm 0.0 W/m2
21:10 74.7 °F /  23.7 °C 30.9 °F /  -0.6 °C 30.11in /  1019.5hPa WSW 0.9mph /  1.4km/h 2.0mph /  3.2km/h 20% 0.00in /  0mm 0.0 W/m2
21:15 74.5 °F /  23.6 °C 32.0 °F /  0 °C 30.12in /  1019.9hPa Calm     21% 0.00in /  0mm 0.0 W/m2
21:20 74.3 °F /  23.5 °C 31.8 °F /  -0.1 °C 30.12in /  1019.9hPa Calm   3.0mph /  4.8km/h 21% 0.00in /  0mm 0.0 W/m2
21:25 74.1 °F /  23.4 °C 31.6 °F /  -0.2 °C 30.13in /  1020.2hPa WNW 0.9mph /  1.4km/h 1.0mph /  1.6km/h 21% 0.00in /  0mm 0.0 W/m2
21:30 73.9 °F /  23.3 °C 31.5 °F /  -0.3 °C 30.13in /  1020.2hPa Calm   6.0mph /  9.7km/h 21% 0.00in /  0mm 0.0 W/m2
21:35 73.8 °F /  23.2 °C 30.2 °F /  -1 °C 30.13in /  1020.2hPa WSW 2.9mph /  4.7km/h 3.0mph /  4.8km/h 20% 0.00in /  0mm 0.0 W/m2
21:40 74.1 °F /  23.4 °C 30.6 °F /  -0.8 °C 30.13in /  1020.2hPa SW 2.0mph /  3.2km/h 4.0mph /  6.4km/h 20% 0.00in /  0mm 0.0 W/m2
21:45 74.3 °F /  23.5 °C 30.6 °F /  -0.8 °C 30.13in /  1020.2hPa Calm     20% 0.00in /  0mm 0.0 W/m2
21:50 74.3 °F /  23.5 °C 31.8 °F /  -0.1 °C 30.14in /  1020.5hPa Calm   2.0mph /  3.2km/h 21% 0.00in /  0mm 0.0 W/m2
21:56 74.1 °F /  23.4 °C 30.6 °F /  -0.8 °C 30.14in /  1020.5hPa WSW 0.9mph /  1.4km/h 3.0mph /  4.8km/h 20% 0.00in /  0mm 0.0 W/m2
22:07 74.1 °F /  23.4 °C 31.6 °F /  -0.2 °C 30.14in /  1020.5hPa Calm   1.0mph /  1.6km/h 21% 0.00in /  0mm 0.0 W/m2
22:12 73.9 °F /  23.3 °C 31.5 °F /  -0.3 °C 30.15in /  1020.9hPa Calm   3.0mph /  4.8km/h 21% 0.00in /  0mm 0.0 W/m2
22:17 73.9 °F /  23.3 °C 31.5 °F /  -0.3 °C 30.15in /  1020.9hPa WSW 4.0mph /  6.4km/h 8.0mph /  12.9km/h 21% 0.00in /  0mm 0.0 W/m2
22:23 74.3 °F /  23.5 °C 31.8 °F /  -0.1 °C 30.15in /  1020.9hPa WSW 2.0mph /  3.2km/h 5.0mph /  8km/h 21% 0.00in /  0mm 0.0 W/m2
22:28 74.3 °F /  23.5 °C 31.8 °F /  -0.1 °C 30.15in /  1020.9hPa WNW 6.0mph /  9.7km/h 6.0mph /  9.7km/h 21% 0.00in /  0mm 0.0 W/m2
22:38 74.5 °F /  23.6 °C 32.0 °F /  0 °C 30.15in /  1020.9hPa WSW 0.9mph /  1.4km/h 3.0mph /  4.8km/h 21% 0.00in /  0mm 0.0 W/m2
22:44 74.3 °F /  23.5 °C 31.8 °F /  -0.1 °C 30.16in /  1021.2hPa WSW 0.9mph /  1.4km/h 5.0mph /  8km/h 21% 0.00in /  0mm 0.0 W/m2
22:49 74.1 °F /  23.4 °C 31.6 °F /  -0.2 °C 30.16in /  1021.2hPa Calm   4.0mph /  6.4km/h 21% 0.00in /  0mm 0.0 W/m2
22:54 73.9 °F /  23.3 °C 31.5 °F /  -0.3 °C 30.15in /  1020.9hPa SW 2.0mph /  3.2km/h 3.0mph /  4.8km/h 21% 0.00in /  0mm 0.0 W/m2
22:59 73.9 °F /  23.3 °C 31.5 °F /  -0.3 °C 30.15in /  1020.9hPa Calm   4.0mph /  6.4km/h 21% 0.00in /  0mm 0.0 W/m2
23:09 73.6 °F /  23.1 °C 31.3 °F /  -0.4 °C 30.15in /  1020.9hPa West 0.9mph /  1.4km/h 7.0mph /  11.3km/h 21% 0.00in /  0mm 0.0 W/m2
23:14 73.6 °F /  23.1 °C 31.3 °F /  -0.4 °C 30.15in /  1020.9hPa WSW 2.0mph /  3.2km/h 5.0mph /  8km/h 21% 0.00in /  0mm 0.0 W/m2
23:29 73.0 °F /  22.8 °C 30.7 °F /  -0.7 °C 30.16in /  1021.2hPa SW 2.0mph /  3.2km/h 2.0mph /  3.2km/h 21% 0.00in /  0mm 0.0 W/m2
23:34 73.0 °F /  22.8 °C 30.7 °F /  -0.7 °C 30.16in /  1021.2hPa Calm   1.0mph /  1.6km/h 21% 0.00in /  0mm 0.0 W/m2
23:45 72.9 °F /  22.7 °C 29.5 °F /  -1.4 °C 30.15in /  1020.9hPa West 4.0mph /  6.4km/h 4.0mph /  6.4km/h 20% 0.00in /  0mm 0.0 W/m2
23:55 72.7 °F /  22.6 °C 29.3 °F /  -1.5 °C 30.14in /  1020.5hPa SW 2.9mph /  4.7km/h 6.0mph /  9.7km/h 20% 0.00in /  0mm 0.0 W/m2
Olympia, Windhoek, Namibia
Compliments of Weather Underground - 3 mb